createdAt,value
2023-09-06T00:01:07.627Z,15.74
2023-09-06T00:03:39.238Z,15.70
2023-09-06T00:06:08.368Z,15.64
2023-09-06T00:08:37.356Z,15.60
2023-09-06T00:11:07.070Z,15.57
2023-09-06T00:13:36.579Z,15.60
2023-09-06T00:16:06.068Z,15.58
2023-09-06T00:18:35.035Z,15.56
2023-09-06T00:21:03.963Z,15.53
2023-09-06T00:23:32.709Z,15.50
2023-09-06T00:26:01.259Z,15.48
2023-09-06T00:28:29.987Z,15.46
2023-09-06T00:30:59.316Z,15.42
2023-09-06T00:33:28.592Z,15.39
2023-09-06T00:35:57.574Z,15.37
2023-09-06T00:38:27.500Z,15.36
2023-09-06T00:40:56.440Z,15.34
2023-09-06T00:43:25.315Z,15.29
2023-09-06T00:45:55.115Z,15.24
2023-09-06T00:48:26.018Z,15.19
2023-09-06T00:50:56.480Z,15.16
2023-09-06T00:53:27.272Z,15.15
2023-09-06T00:55:56.857Z,15.14
2023-09-06T00:58:28.710Z,15.14
2023-09-06T01:00:57.780Z,15.13
2023-09-06T01:03:26.468Z,15.10
2023-09-06T01:06:25.209Z,15.07
2023-09-06T01:08:57.299Z,15.06
2023-09-06T01:11:28.030Z,15.03
2023-09-06T01:13:59.874Z,14.98
2023-09-06T01:16:31.044Z,14.93
2023-09-06T01:19:00.756Z,14.85
2023-09-06T01:21:37.503Z,14.78
2023-09-06T01:24:07.560Z,14.72
2023-09-06T01:26:36.908Z,14.68
2023-09-06T01:29:05.928Z,14.65
2023-09-06T01:31:36.930Z,14.63
2023-09-06T01:34:06.021Z,14.61
2023-09-06T01:36:34.627Z,14.62
2023-09-06T01:39:03.344Z,14.61
2023-09-06T01:41:31.964Z,14.58
2023-09-06T01:44:02.125Z,14.50
2023-09-06T01:46:30.598Z,14.49
2023-09-06T01:49:00.840Z,14.47
2023-09-06T01:51:29.542Z,14.42
2023-09-06T01:53:58.516Z,14.39
2023-09-06T01:56:26.921Z,14.35
2023-09-06T01:58:55.299Z,14.26
2023-09-06T02:01:24.013Z,14.20
2023-09-06T02:03:52.581Z,14.13
2023-09-06T02:06:21.288Z,14.08
2023-09-06T02:08:50.648Z,14.05
2023-09-06T02:11:19.150Z,14.04
2023-09-06T02:13:47.695Z,14.01
2023-09-06T02:16:19.508Z,13.95
2023-09-06T02:18:47.973Z,13.90
2023-09-06T02:21:16.496Z,13.87
2023-09-06T02:23:45.432Z,13.86
2023-09-06T02:26:13.990Z,13.84
2023-09-06T02:28:42.650Z,13.80
2023-09-06T02:31:11.127Z,13.76
2023-09-06T02:33:39.603Z,13.72
2023-09-06T02:36:08.168Z,13.67
2023-09-06T02:38:36.655Z,13.63
2023-09-06T02:41:05.304Z,13.56
2023-09-06T02:43:33.705Z,13.49
2023-09-06T02:46:04.881Z,13.46
2023-09-06T02:48:35.127Z,13.45
2023-09-06T02:51:03.838Z,13.45
2023-09-06T02:53:34.289Z,13.46
2023-09-06T02:56:03.223Z,13.48
2023-09-06T02:58:38.762Z,13.49
2023-09-06T03:01:08.155Z,13.52
2023-09-06T03:03:36.962Z,13.51
2023-09-06T03:06:06.419Z,13.49
2023-09-06T03:08:38.116Z,13.48
2023-09-06T03:11:09.103Z,13.43
2023-09-06T03:13:38.106Z,13.39
2023-09-06T03:16:06.892Z,13.35
2023-09-06T03:18:35.779Z,13.32
2023-09-06T03:21:06.516Z,13.30
2023-09-06T03:23:37.363Z,13.31
2023-09-06T03:26:07.270Z,13.31
2023-09-06T03:28:35.976Z,13.31
2023-09-06T03:31:04.801Z,13.32
2023-09-06T03:33:33.707Z,13.33
2023-09-06T03:36:02.257Z,13.33
2023-09-06T03:38:30.941Z,13.35
2023-09-06T03:41:04.024Z,13.36
2023-09-06T03:43:34.369Z,13.36
2023-09-06T03:46:08.895Z,13.33
2023-09-06T03:48:38.200Z,13.31
2023-09-06T03:51:07.093Z,13.29
2023-09-06T03:53:39.069Z,13.28
2023-09-06T03:56:08.033Z,13.28
2023-09-06T03:58:37.406Z,13.32
2023-09-06T04:01:06.282Z,13.35
2023-09-06T04:03:35.882Z,13.37
2023-09-06T04:06:04.808Z,13.38
2023-09-06T04:08:35.533Z,13.39
2023-09-06T04:11:04.347Z,13.37
2023-09-06T04:13:34.595Z,13.36
2023-09-06T04:16:03.653Z,13.35
2023-09-06T04:18:32.630Z,13.35
2023-09-06T04:21:01.659Z,13.34
2023-09-06T04:23:31.329Z,13.34
2023-09-06T04:26:01.881Z,13.33
2023-09-06T04:28:31.052Z,13.23
2023-09-06T04:31:00.075Z,13.17
2023-09-06T04:33:28.648Z,13.26
2023-09-06T04:35:58.075Z,13.37
2023-09-06T04:38:26.892Z,13.46
2023-09-06T04:40:55.898Z,13.56
2023-09-06T04:43:24.467Z,13.62
2023-09-06T04:45:53.035Z,13.68
2023-09-06T04:48:25.265Z,13.72
2023-09-06T04:50:53.990Z,13.75
2023-09-06T04:53:22.801Z,13.79
2023-09-06T04:55:53.639Z,13.83
2023-09-06T04:58:22.239Z,13.87
2023-09-06T05:00:51.220Z,13.92
2023-09-06T05:03:19.644Z,13.98
2023-09-06T05:05:49.691Z,14.06
2023-09-06T05:08:20.534Z,14.17
2023-09-06T05:10:53.095Z,14.29
2023-09-06T05:13:21.844Z,14.43
2023-09-06T05:15:50.435Z,14.58
2023-09-06T05:18:19.247Z,14.68
2023-09-06T05:20:48.125Z,14.73
2023-09-06T05:23:44.877Z,14.83
2023-09-06T05:26:14.999Z,14.97
2023-09-06T05:28:44.232Z,15.13
2023-09-06T05:31:13.140Z,15.27
2023-09-06T05:33:41.781Z,15.44
2023-09-06T05:36:10.558Z,15.65
2023-09-06T05:38:39.291Z,15.79
2023-09-06T05:41:11.160Z,15.95
2023-09-06T05:43:41.352Z,16.14
2023-09-06T05:46:21.432Z,16.39
2023-09-06T05:48:58.842Z,16.67
2023-09-06T05:51:27.386Z,16.91
2023-09-06T05:53:55.860Z,17.11
2023-09-06T05:56:24.449Z,17.31
2023-09-06T05:58:53.487Z,17.51
2023-09-06T06:01:23.160Z,17.71
2023-09-06T06:03:51.848Z,17.93
2023-09-06T06:06:21.632Z,18.12
2023-09-06T06:08:50.024Z,18.29
2023-09-06T06:11:18.603Z,18.45
2023-09-06T06:13:53.339Z,18.62
2023-09-06T06:16:25.222Z,18.76
2023-09-06T06:18:53.767Z,18.93
2023-09-06T06:21:22.456Z,19.14
2023-09-06T06:23:51.532Z,19.31
2023-09-06T06:26:21.591Z,19.49
2023-09-06T06:28:50.650Z,19.65
2023-09-06T06:31:19.394Z,19.84
2023-09-06T06:33:48.681Z,20.02
2023-09-06T06:36:17.497Z,20.18
2023-09-06T06:38:47.814Z,20.35
2023-09-06T06:41:24.622Z,20.56
2023-09-06T06:43:57.568Z,20.89
2023-09-06T06:46:31.305Z,21.17
2023-09-06T06:49:01.045Z,21.38
2023-09-06T06:51:39.121Z,21.55
2023-09-06T06:54:09.504Z,21.69
2023-09-06T06:56:39.146Z,21.81
2023-09-06T06:59:11.495Z,21.92
2023-09-06T07:01:40.241Z,22.02
2023-09-06T07:04:09.150Z,22.11
2023-09-06T07:06:37.662Z,22.26
2023-09-06T07:09:06.303Z,22.43
2023-09-06T07:11:35.162Z,22.55
2023-09-06T07:14:03.966Z,22.65
2023-09-06T07:16:35.580Z,22.73
2023-09-06T07:19:04.945Z,22.80
2023-09-06T07:21:34.156Z,22.87
2023-09-06T07:24:02.606Z,22.90
2023-09-06T07:26:44.942Z,23.02
2023-09-06T07:29:15.407Z,23.33
2023-09-06T07:31:44.665Z,24.14
2023-09-06T07:34:13.150Z,25.08
2023-09-06T07:36:41.686Z,25.49
2023-09-06T07:39:10.328Z,25.87
2023-09-06T07:41:41.248Z,26.16
2023-09-06T07:44:11.431Z,26.36
2023-09-06T07:46:42.075Z,26.41
2023-09-06T07:49:10.878Z,26.71
2023-09-06T07:51:39.665Z,27.38
2023-09-06T07:54:08.181Z,28.37
2023-09-06T07:56:36.949Z,29.65
2023-09-06T07:59:05.570Z,31.93
2023-09-06T08:01:34.510Z,34.02
2023-09-06T08:04:03.140Z,35.40
2023-09-06T08:06:31.861Z,36.71
2023-09-06T08:09:00.632Z,38.57
2023-09-06T08:11:29.477Z,39.75
2023-09-06T08:13:58.543Z,40.41
2023-09-06T08:16:27.365Z,42.11
2023-09-06T08:18:59.165Z,43.97
2023-09-06T08:21:28.711Z,44.89
2023-09-06T08:23:57.829Z,45.51
2023-09-06T08:26:26.806Z,45.32
2023-09-06T08:28:55.680Z,45.59
2023-09-06T08:31:24.329Z,45.95
2023-09-06T08:33:53.208Z,46.07
2023-09-06T08:36:22.233Z,46.83
2023-09-06T08:38:52.137Z,48.28
2023-09-06T08:41:22.522Z,49.23
2023-09-06T08:43:53.175Z,49.60
2023-09-06T08:46:31.309Z,49.38
2023-09-06T08:49:04.635Z,49.93
2023-09-06T08:51:37.635Z,51.15
2023-09-06T08:54:10.084Z,52.71
2023-09-06T08:56:38.831Z,53.68
2023-09-06T08:59:09.562Z,53.38
2023-09-06T09:01:39.509Z,53.39
2023-09-06T09:04:08.263Z,54.05
2023-09-06T09:06:37.009Z,54.71
2023-09-06T09:09:18.259Z,55.00
2023-09-06T09:11:51.637Z,53.43
2023-09-06T09:14:25.405Z,50.56
2023-09-06T09:16:55.977Z,50.41
2023-09-06T09:19:25.669Z,51.82
2023-09-06T09:21:56.843Z,51.05
2023-09-06T09:24:27.001Z,49.68
2023-09-06T09:26:58.089Z,49.53
2023-09-06T09:29:29.567Z,50.96
2023-09-06T09:32:05.624Z,50.95
2023-09-06T09:34:34.839Z,51.62
2023-09-06T09:37:07.535Z,53.28
2023-09-06T09:39:36.450Z,54.11
2023-09-06T09:42:07.084Z,54.66
2023-09-06T09:44:35.468Z,53.27
2023-09-06T09:47:38.187Z,52.54
2023-09-06T09:50:04.412Z,51.76
2023-09-06T09:52:34.333Z,53.26
2023-09-06T09:55:04.796Z,55.61
2023-09-06T09:57:36.207Z,56.85
2023-09-06T10:00:08.429Z,56.71
2023-09-06T10:02:40.991Z,55.14
2023-09-06T10:05:18.303Z,54.08
2023-09-06T10:07:50.075Z,54.24
2023-09-06T10:10:22.253Z,55.47
2023-09-06T10:12:53.038Z,56.05
2023-09-06T10:15:25.171Z,56.73
2023-09-06T10:17:57.204Z,56.52
2023-09-06T10:20:28.490Z,54.96
2023-09-06T10:22:58.573Z,55.14
2023-09-06T10:25:30.422Z,54.64
2023-09-06T10:28:03.248Z,53.72
2023-09-06T10:30:36.052Z,53.22
2023-09-06T10:33:04.859Z,54.24
2023-09-06T10:35:34.290Z,55.56
2023-09-06T10:38:16.294Z,55.95
2023-09-06T10:40:50.911Z,56.76
2023-09-06T10:43:27.012Z,55.36
2023-09-06T10:46:11.206Z,55.36
2023-09-06T10:48:39.949Z,55.17
2023-09-06T10:51:11.217Z,54.66
2023-09-06T10:53:42.058Z,54.39
2023-09-06T10:56:11.042Z,53.76
2023-09-06T10:58:39.506Z,54.83
2023-09-06T11:01:26.449Z,54.19
2023-09-06T11:03:59.937Z,53.04
2023-09-06T11:06:28.920Z,51.94
2023-09-06T11:09:06.375Z,52.07
2023-09-06T11:11:39.295Z,53.66
2023-09-06T11:14:07.761Z,55.03
2023-09-06T11:16:36.608Z,56.23
2023-09-06T11:19:05.225Z,55.96
2023-09-06T11:21:33.870Z,55.52
2023-09-06T11:24:02.456Z,52.70
2023-09-06T11:26:38.494Z,51.45
2023-09-06T11:29:07.113Z,51.41
2023-09-06T11:31:36.506Z,51.05
2023-09-06T11:34:07.489Z,51.16
2023-09-06T11:36:38.358Z,53.20
2023-09-06T11:39:17.558Z,55.53
2023-09-06T11:41:46.715Z,55.72
2023-09-06T11:44:19.415Z,54.48
2023-09-06T11:46:50.266Z,55.25
2023-09-06T11:49:22.829Z,55.65
2023-09-06T11:51:55.490Z,55.06
2023-09-06T11:54:28.641Z,55.67
2023-09-06T11:56:59.123Z,55.97
2023-09-06T11:59:33.227Z,55.69
2023-09-06T12:02:02.973Z,56.19
2023-09-06T12:04:33.588Z,56.13
2023-09-06T12:07:04.283Z,55.76
2023-09-06T12:09:34.489Z,55.72
2023-09-06T12:12:07.005Z,55.40
2023-09-06T12:14:36.073Z,53.56
2023-09-06T12:17:06.685Z,53.22
2023-09-06T12:19:35.421Z,52.50
2023-09-06T12:22:05.071Z,49.93
2023-09-06T12:24:35.400Z,48.86
2023-09-06T12:27:05.236Z,48.41
2023-09-06T12:29:34.062Z,47.40
2023-09-06T12:32:06.401Z,45.29
2023-09-06T12:34:35.404Z,42.46
2023-09-06T12:37:04.553Z,40.49
2023-09-06T12:39:33.061Z,38.56
2023-09-06T12:42:01.783Z,36.92
2023-09-06T12:44:30.578Z,35.47
2023-09-06T12:46:59.208Z,34.22
2023-09-06T12:49:27.954Z,33.01
2023-09-06T12:51:56.498Z,32.41
2023-09-06T12:54:25.538Z,31.77
2023-09-06T12:56:58.346Z,30.90
2023-09-06T12:59:28.437Z,30.02
2023-09-06T13:01:57.974Z,29.35
2023-09-06T13:04:29.197Z,28.66
2023-09-06T13:06:58.847Z,28.04
2023-09-06T13:09:28.213Z,27.60
2023-09-06T13:11:56.813Z,27.41
2023-09-06T13:14:25.457Z,27.00
2023-09-06T13:16:54.190Z,26.33
2023-09-06T13:19:23.096Z,26.00
2023-09-06T13:21:52.027Z,25.89
2023-09-06T13:24:20.865Z,25.70
2023-09-06T13:26:51.345Z,25.55
2023-09-06T13:29:20.547Z,25.52
2023-09-06T13:31:49.613Z,25.42
2023-09-06T13:34:18.752Z,25.33
2023-09-06T13:36:48.168Z,25.29
2023-09-06T13:39:18.763Z,25.32
2023-09-06T13:41:48.612Z,24.93
2023-09-06T13:44:17.924Z,24.60
2023-09-06T13:46:49.342Z,24.43
2023-09-06T13:49:18.701Z,24.17
2023-09-06T13:51:47.280Z,23.84
2023-09-06T13:54:16.337Z,23.85
2023-09-06T13:56:46.043Z,23.70
2023-09-06T13:59:14.688Z,23.46
2023-09-06T14:01:43.807Z,23.16
2023-09-06T14:04:13.029Z,23.04
2023-09-06T14:06:41.711Z,22.97
2023-09-06T14:09:12.025Z,22.71
2023-09-06T14:11:40.540Z,22.36
2023-09-06T14:14:09.161Z,22.30
2023-09-06T14:16:37.985Z,22.20
2023-09-06T14:19:07.375Z,22.06
2023-09-06T14:21:36.955Z,22.00
2023-09-06T14:24:06.445Z,22.03
2023-09-06T14:26:35.481Z,21.98
2023-09-06T14:29:04.034Z,21.87
2023-09-06T14:31:33.005Z,21.80
2023-09-06T14:34:03.351Z,21.73
2023-09-06T14:36:32.213Z,21.59
2023-09-06T14:39:01.033Z,21.50
2023-09-06T14:41:30.780Z,21.50
2023-09-06T14:43:59.352Z,21.38
2023-09-06T14:46:27.834Z,21.29
2023-09-06T14:48:56.662Z,21.26
2023-09-06T14:51:25.814Z,21.13
2023-09-06T14:53:55.947Z,20.95
2023-09-06T14:56:26.099Z,20.80
2023-09-06T14:58:56.055Z,20.75
2023-09-06T15:01:24.704Z,20.70
2023-09-06T15:03:53.533Z,20.58
2023-09-06T15:06:23.148Z,20.59
2023-09-06T15:08:57.564Z,20.51
2023-09-06T15:11:26.946Z,20.34
2023-09-06T15:13:55.578Z,20.21
2023-09-06T15:16:23.990Z,20.10
2023-09-06T15:18:52.690Z,20.03
2023-09-06T15:21:21.345Z,20.01
2023-09-06T15:23:49.772Z,20.01
2023-09-06T15:26:19.617Z,19.98
2023-09-06T15:28:48.444Z,19.86
2023-09-06T15:31:21.313Z,19.69
2023-09-06T15:33:50.142Z,19.70
2023-09-06T15:36:18.857Z,19.60
2023-09-06T15:38:47.569Z,19.51
2023-09-06T15:41:19.027Z,19.40
2023-09-06T15:43:49.768Z,19.39
2023-09-06T15:46:18.308Z,19.39
2023-09-06T15:48:46.975Z,19.32
2023-09-06T15:51:15.486Z,19.20
2023-09-06T15:53:44.460Z,19.10
2023-09-06T15:56:13.057Z,19.03
2023-09-06T15:58:41.662Z,18.97
2023-09-06T16:01:10.075Z,18.91
2023-09-06T16:03:39.428Z,18.85
2023-09-06T16:06:09.451Z,18.82
2023-09-06T16:08:39.368Z,18.82
2023-09-06T16:11:10.525Z,18.70
2023-09-06T16:13:39.966Z,18.59
2023-09-06T16:16:09.513Z,18.52
2023-09-06T16:18:38.245Z,18.41
2023-09-06T16:21:06.994Z,18.34
2023-09-06T16:23:35.567Z,18.23
2023-09-06T16:26:13.174Z,18.15
2023-09-06T16:28:41.768Z,18.09
2023-09-06T16:31:10.408Z,18.05
2023-09-06T16:33:39.098Z,18.03
2023-09-06T16:36:07.898Z,17.97
2023-09-06T16:38:38.762Z,17.91
2023-09-06T16:41:07.622Z,17.88
2023-09-06T16:43:36.086Z,17.81
2023-09-06T16:46:06.224Z,17.77
2023-09-06T16:48:35.131Z,17.74
2023-09-06T16:51:07.708Z,17.64
2023-09-06T16:53:36.154Z,17.57
2023-09-06T16:56:04.872Z,17.58
2023-09-06T16:58:33.397Z,17.51
2023-09-06T17:01:02.127Z,17.44
2023-09-06T17:03:31.142Z,17.36
2023-09-06T17:06:00.579Z,17.33
2023-09-06T17:08:29.976Z,17.26
2023-09-06T17:10:58.899Z,17.18
2023-09-06T17:13:27.899Z,17.13
2023-09-06T17:15:56.865Z,17.06
2023-09-06T17:18:30.300Z,16.94
2023-09-06T17:21:00.105Z,16.90
2023-09-06T17:23:32.960Z,16.88
2023-09-06T17:26:01.852Z,16.79
2023-09-06T17:28:30.965Z,16.68
2023-09-06T17:30:59.711Z,16.59
2023-09-06T17:33:28.323Z,16.49
2023-09-06T17:35:58.038Z,16.41
2023-09-06T17:38:26.744Z,16.37
2023-09-06T17:40:56.685Z,16.36
2023-09-06T17:43:27.585Z,16.39
2023-09-06T17:45:57.639Z,16.33
2023-09-06T17:48:27.713Z,16.26
2023-09-06T17:50:58.986Z,16.23
2023-09-06T17:53:29.349Z,16.18
2023-09-06T17:56:09.377Z,16.12
2023-09-06T17:58:48.364Z,16.06
2023-09-06T18:01:27.822Z,16.03
2023-09-06T18:04:29.594Z,16.01
2023-09-06T18:07:02.546Z,15.96
2023-09-06T18:09:34.878Z,15.92
2023-09-06T18:12:03.687Z,15.88
2023-09-06T18:14:32.274Z,15.88
2023-09-06T18:17:01.956Z,15.91
2023-09-06T18:19:32.332Z,15.91
2023-09-06T18:22:00.976Z,15.94
2023-09-06T18:24:30.773Z,15.97
2023-09-06T18:27:08.124Z,15.99
2023-09-06T18:29:38.194Z,16.01
2023-09-06T18:32:09.751Z,16.06
2023-09-06T18:34:41.039Z,16.07
2023-09-06T18:37:09.624Z,16.10
2023-09-06T18:39:39.818Z,16.18
2023-09-06T18:42:10.155Z,16.21
2023-09-06T18:44:40.697Z,16.22
2023-09-06T18:47:10.447Z,16.30
2023-09-06T18:49:41.001Z,16.33
2023-09-06T18:52:12.523Z,16.38
2023-09-06T18:54:41.221Z,16.41
2023-09-06T18:57:11.608Z,16.46
2023-09-06T18:59:41.191Z,16.53
2023-09-06T19:02:12.567Z,16.60
2023-09-06T19:04:44.109Z,16.65
2023-09-06T19:07:12.747Z,16.65
2023-09-06T19:09:41.757Z,16.66
2023-09-06T19:12:15.090Z,16.69
2023-09-06T19:14:43.938Z,16.65
2023-09-06T19:17:14.445Z,16.62
2023-09-06T19:19:44.132Z,16.67
2023-09-06T19:22:13.000Z,16.66
2023-09-06T19:24:41.552Z,16.68
2023-09-06T19:27:10.158Z,16.66
2023-09-06T19:29:38.921Z,16.65
2023-09-06T19:32:07.800Z,16.70
2023-09-06T19:34:36.669Z,16.70
2023-09-06T19:37:05.853Z,16.69
2023-09-06T19:39:35.122Z,16.73
2023-09-06T19:42:05.142Z,16.74
2023-09-06T19:44:36.573Z,16.73
2023-09-06T19:47:05.158Z,16.70
2023-09-06T19:49:35.185Z,16.70
2023-09-06T19:52:04.087Z,16.70
2023-09-06T19:54:32.666Z,16.69
2023-09-06T19:57:02.148Z,16.71
2023-09-06T19:59:31.191Z,16.72
2023-09-06T20:02:01.173Z,16.75
2023-09-06T20:04:30.341Z,16.74
2023-09-06T20:06:59.178Z,16.75
2023-09-06T20:09:31.908Z,16.76
2023-09-06T20:12:00.695Z,16.75
2023-09-06T20:14:29.535Z,16.74
2023-09-06T20:16:58.363Z,16.76
2023-09-06T20:19:26.972Z,16.78
2023-09-06T20:21:56.061Z,16.84
2023-09-06T20:24:24.742Z,16.86
2023-09-06T20:26:53.579Z,16.85
2023-09-06T20:29:30.529Z,16.85
2023-09-06T20:31:59.480Z,16.80
2023-09-06T20:34:28.601Z,16.74
2023-09-06T20:36:57.722Z,16.67
2023-09-06T20:39:26.347Z,16.67
2023-09-06T20:41:55.877Z,16.70
2023-09-06T20:44:24.748Z,16.71
2023-09-06T20:46:53.622Z,16.72
2023-09-06T20:49:23.179Z,16.75
2023-09-06T20:51:51.907Z,16.75
2023-09-06T20:54:21.284Z,16.79
2023-09-06T20:56:54.887Z,16.75
2023-09-06T20:59:23.512Z,16.77
2023-09-06T21:01:53.016Z,16.82
2023-09-06T21:04:21.882Z,16.80
2023-09-06T21:06:50.543Z,16.82
2023-09-06T21:09:19.117Z,16.86
2023-09-06T21:11:47.787Z,16.84
2023-09-06T21:14:18.815Z,16.83
2023-09-06T21:16:48.786Z,16.87
2023-09-06T21:19:17.696Z,16.88
2023-09-06T21:21:46.138Z,16.90
2023-09-06T21:24:14.810Z,16.91
2023-09-06T21:26:45.801Z,16.91
2023-09-06T21:29:27.335Z,16.93
2023-09-06T21:31:57.722Z,16.98
2023-09-06T21:34:26.564Z,17.04
2023-09-06T21:36:55.277Z,17.08
2023-09-06T21:39:25.437Z,17.08
2023-09-06T21:41:54.232Z,17.07
2023-09-06T21:44:22.805Z,17.09
2023-09-06T21:46:51.286Z,17.09
2023-09-06T21:49:19.750Z,17.09
2023-09-06T21:51:48.436Z,17.07
2023-09-06T21:54:17.262Z,17.05
2023-09-06T21:56:45.885Z,17.09
2023-09-06T21:59:16.253Z,17.07
2023-09-06T22:01:44.774Z,17.07
2023-09-06T22:04:13.318Z,16.97
2023-09-06T22:06:41.910Z,16.91
2023-09-06T22:09:11.079Z,16.92
2023-09-06T22:11:39.979Z,16.94
2023-09-06T22:14:08.698Z,16.95
2023-09-06T22:16:37.800Z,16.95
2023-09-06T22:19:07.726Z,16.96
2023-09-06T22:21:36.342Z,17.01
2023-09-06T22:24:05.425Z,17.08
2023-09-06T22:26:33.998Z,17.11
2023-09-06T22:29:02.925Z,17.10
2023-09-06T22:31:31.791Z,17.07
2023-09-06T22:34:00.448Z,17.09
2023-09-06T22:36:29.128Z,17.10
2023-09-06T22:38:57.729Z,17.15
2023-09-06T22:41:26.505Z,17.16
2023-09-06T22:43:55.148Z,17.16
2023-09-06T22:46:25.979Z,17.12
2023-09-06T22:48:55.942Z,17.10
2023-09-06T22:51:24.758Z,17.07
2023-09-06T22:53:53.354Z,17.09
2023-09-06T22:56:21.929Z,17.02
2023-09-06T22:58:51.021Z,16.93
2023-09-06T23:01:19.587Z,16.85
2023-09-06T23:03:48.525Z,16.72
2023-09-06T23:06:18.297Z,16.65
2023-09-06T23:08:47.697Z,16.55
2023-09-06T23:11:20.039Z,16.47
2023-09-06T23:13:49.135Z,16.42
2023-09-06T23:16:17.868Z,16.38
2023-09-06T23:21:58.402Z,16.28
2023-09-06T23:24:29.267Z,16.25
2023-09-06T23:27:00.897Z,16.26
2023-09-06T23:29:34.085Z,16.28
2023-09-06T23:32:06.283Z,16.30
2023-09-06T23:34:36.826Z,16.32
2023-09-06T23:37:06.586Z,16.37
2023-09-06T23:39:35.272Z,16.35
2023-09-06T23:42:11.236Z,16.33
2023-09-06T23:44:43.630Z,16.38
2023-09-06T23:47:12.560Z,16.37
2023-09-06T23:49:41.886Z,16.38
2023-09-06T23:52:10.388Z,16.40
2023-09-06T23:54:47.187Z,16.42
2023-09-06T23:57:19.103Z,16.43
2023-09-06T23:59:48.417Z,16.44
